createdAt,value
2019-02-11T00:02:23.803Z,8.93
2019-02-11T00:04:57.369Z,7.07
2019-02-11T00:07:30.944Z,8.03
2019-02-11T00:10:05.068Z,7.33
2019-02-11T00:12:38.427Z,7.27
2019-02-11T00:15:11.893Z,7.17
2019-02-11T00:17:45.384Z,5.57
2019-02-11T00:20:18.862Z,6.47
2019-02-11T00:22:52.415Z,5.97
2019-02-11T00:25:25.896Z,5.53
2019-02-11T00:27:59.361Z,5.60
2019-02-11T00:30:34.282Z,5.23
2019-02-11T00:33:08.113Z,5.30
2019-02-11T00:35:41.667Z,5.33
2019-02-11T00:38:15.199Z,4.57
2019-02-11T00:40:48.736Z,4.60
2019-02-11T00:43:22.245Z,4.40
2019-02-11T00:45:55.771Z,4.80
2019-02-11T00:48:29.279Z,4.70
2019-02-11T00:51:02.803Z,4.87
2019-02-11T00:53:36.294Z,4.70
2019-02-11T00:56:09.805Z,3.70
2019-02-11T00:58:43.272Z,4.70
2019-02-11T01:01:16.732Z,4.60
2019-02-11T01:03:50.145Z,4.60
2019-02-11T01:06:23.707Z,4.03
2019-02-11T01:08:57.139Z,4.83
2019-02-11T01:11:30.678Z,4.60
2019-02-11T01:14:04.166Z,5.43
2019-02-11T01:16:37.574Z,4.70
2019-02-11T01:19:11.037Z,5.00
2019-02-11T01:21:44.491Z,5.30
2019-02-11T01:24:17.951Z,4.70
2019-02-11T01:26:51.395Z,5.63
2019-02-11T01:29:24.821Z,4.70
2019-02-11T01:31:58.343Z,4.90
2019-02-11T01:34:31.778Z,4.97
2019-02-11T01:37:05.213Z,5.07
2019-02-11T01:39:38.688Z,3.90
2019-02-11T01:42:12.089Z,3.83
2019-02-11T01:44:45.502Z,4.63
2019-02-11T01:47:19.024Z,4.47
2019-02-11T01:49:52.474Z,3.67
2019-02-11T01:52:25.869Z,3.43
2019-02-11T01:54:59.312Z,4.10
2019-02-11T01:57:32.819Z,4.13
2019-02-11T02:00:13.993Z,3.93
2019-02-11T02:02:47.449Z,3.60
2019-02-11T02:05:20.896Z,3.27
2019-02-11T02:07:54.425Z,2.93
2019-02-11T02:10:27.914Z,3.67
2019-02-11T02:13:01.381Z,4.27
2019-02-11T02:15:34.903Z,3.90
2019-02-11T02:18:08.338Z,4.07
2019-02-11T02:20:41.800Z,3.47
2019-02-11T02:23:15.349Z,3.80
2019-02-11T02:25:48.876Z,4.10
2019-02-11T02:28:22.215Z,3.97
2019-02-11T02:30:55.681Z,3.60
2019-02-11T02:33:29.109Z,4.03
2019-02-11T02:36:02.726Z,3.70
2019-02-11T02:38:36.086Z,4.30
2019-02-11T02:41:09.528Z,4.03
2019-02-11T02:43:42.983Z,3.87
2019-02-11T02:46:16.672Z,3.77
2019-02-11T02:48:50.025Z,4.20
2019-02-11T02:51:23.476Z,4.73
2019-02-11T02:53:56.888Z,4.60
2019-02-11T02:56:30.355Z,4.00
2019-02-11T02:59:03.869Z,4.13
2019-02-11T03:01:37.450Z,5.20
2019-02-11T03:04:11.054Z,3.80
2019-02-11T03:06:44.616Z,4.43
2019-02-11T03:09:18.224Z,4.70
2019-02-11T03:11:51.839Z,4.53
2019-02-11T03:14:25.386Z,4.30
2019-02-11T03:16:58.900Z,4.30
2019-02-11T03:19:32.435Z,4.17
2019-02-11T03:22:05.849Z,4.77
2019-02-11T03:24:39.466Z,4.13
2019-02-11T03:27:12.984Z,4.10
2019-02-11T03:29:47.159Z,4.03
2019-02-11T03:32:20.714Z,4.20
2019-02-11T03:34:54.390Z,3.70
2019-02-11T03:37:27.766Z,4.33
2019-02-11T03:40:01.254Z,3.73
2019-02-11T03:42:34.811Z,3.70
2019-02-11T03:45:13.450Z,3.00
2019-02-11T03:47:46.927Z,3.73
2019-02-11T03:50:20.526Z,3.77
2019-02-11T03:52:54.040Z,3.10
2019-02-11T03:55:27.678Z,4.03
2019-02-11T03:58:01.194Z,3.50
2019-02-11T04:00:34.708Z,3.27
2019-02-11T04:03:08.261Z,3.67
2019-02-11T04:05:41.807Z,3.03
2019-02-11T04:08:15.357Z,3.30
2019-02-11T04:10:48.814Z,3.03
2019-02-11T04:13:22.350Z,4.23
2019-02-11T04:15:55.908Z,3.67
2019-02-11T04:18:29.297Z,3.20
2019-02-11T04:21:02.887Z,3.37
2019-02-11T04:23:36.407Z,3.60
2019-02-11T04:26:09.928Z,3.77
2019-02-11T04:28:43.591Z,3.47
2019-02-11T04:31:17.020Z,3.30
2019-02-11T04:33:50.480Z,3.17
2019-02-11T04:36:23.836Z,3.70
2019-02-11T04:38:57.542Z,3.70
2019-02-11T04:41:31.169Z,3.17
2019-02-11T04:44:04.883Z,3.50
2019-02-11T04:46:38.399Z,3.10
2019-02-11T04:49:12.024Z,3.53
2019-02-11T04:51:45.559Z,3.47
2019-02-11T04:54:19.123Z,3.40
2019-02-11T04:56:53.998Z,3.70
2019-02-11T04:59:27.500Z,3.70
2019-02-11T05:02:01.008Z,3.07
2019-02-11T05:04:34.596Z,3.43
2019-02-11T05:07:08.109Z,3.60
2019-02-11T05:09:41.587Z,3.40
2019-02-11T05:12:15.272Z,3.27
2019-02-11T05:14:48.797Z,3.57
2019-02-11T05:17:22.368Z,4.37
2019-02-11T05:19:55.861Z,4.10
2019-02-11T05:22:29.399Z,3.27
2019-02-11T05:25:03.015Z,4.13
2019-02-11T05:27:36.502Z,4.03
2019-02-11T05:30:13.310Z,2.97
2019-02-11T05:32:46.780Z,2.60
2019-02-11T05:35:20.412Z,3.07
2019-02-11T05:37:53.930Z,3.13
2019-02-11T05:40:27.437Z,3.10
2019-02-11T05:43:01.003Z,2.40
2019-02-11T05:45:34.554Z,2.90
2019-02-11T05:48:08.061Z,3.00
2019-02-11T05:50:41.675Z,3.17
2019-02-11T05:53:15.203Z,2.97
2019-02-11T05:55:48.836Z,4.27
2019-02-11T05:58:22.267Z,3.07
2019-02-11T06:00:55.857Z,2.70
2019-02-11T06:03:29.311Z,2.80
2019-02-11T06:06:02.948Z,3.20
2019-02-11T06:08:37.263Z,3.17
2019-02-11T06:11:10.818Z,3.40
2019-02-11T06:13:44.370Z,3.00
2019-02-11T06:16:17.887Z,3.63
2019-02-11T06:18:51.435Z,2.83
2019-02-11T06:21:25.003Z,3.73
2019-02-11T06:23:58.558Z,2.97
2019-02-11T06:26:32.130Z,2.77
2019-02-11T06:29:05.714Z,3.30
2019-02-11T06:31:39.184Z,3.50
2019-02-11T06:34:12.929Z,2.87
2019-02-11T06:36:46.278Z,2.70
2019-02-11T06:39:19.829Z,3.23
2019-02-11T06:41:53.481Z,2.77
2019-02-11T06:44:27.008Z,2.77
2019-02-11T06:47:00.627Z,2.90
2019-02-11T06:49:34.209Z,2.80
2019-02-11T06:52:07.702Z,2.50
2019-02-11T06:54:41.255Z,3.13
2019-02-11T06:57:14.688Z,2.87
2019-02-11T06:59:48.168Z,2.87
2019-02-11T07:02:23.697Z,3.00
2019-02-11T07:04:57.133Z,4.30
2019-02-11T07:07:30.623Z,3.53
2019-02-11T07:10:06.260Z,3.10
2019-02-11T07:12:39.755Z,3.87
2019-02-11T07:15:21.479Z,3.37
2019-02-11T07:17:49.928Z,3.80
2019-02-11T07:20:23.545Z,3.80
2019-02-11T07:22:56.981Z,3.73
2019-02-11T07:25:30.441Z,4.43
2019-02-11T07:28:04.030Z,3.87
2019-02-11T07:30:37.643Z,3.80
2019-02-11T07:33:11.217Z,4.10
2019-02-11T07:35:44.874Z,4.10
2019-02-11T07:38:18.369Z,4.07
2019-02-11T07:40:51.970Z,3.67
2019-02-11T07:43:27.061Z,3.97
2019-02-11T07:46:02.358Z,3.90
2019-02-11T07:48:35.785Z,4.30
2019-02-11T07:51:09.333Z,4.20
2019-02-11T07:53:42.828Z,4.20
2019-02-11T07:56:16.418Z,3.90
2019-02-11T07:58:49.860Z,3.53
2019-02-11T08:01:23.339Z,3.53
2019-02-11T08:03:56.858Z,3.63
2019-02-11T08:06:30.447Z,4.27
2019-02-11T08:09:06.481Z,3.57
2019-02-11T08:11:40.011Z,4.03
2019-02-11T08:14:13.464Z,4.13
2019-02-11T08:16:46.993Z,4.30
2019-02-11T08:19:20.484Z,4.10
2019-02-11T08:21:54.036Z,3.93
2019-02-11T08:24:27.550Z,4.80
2019-02-11T08:27:01.039Z,4.57
2019-02-11T08:29:34.593Z,4.67
2019-02-11T08:32:08.122Z,4.23
2019-02-11T08:34:41.584Z,4.53
2019-02-11T08:37:15.087Z,4.50
2019-02-11T08:39:48.717Z,5.30
2019-02-11T08:42:22.164Z,4.17
2019-02-11T08:44:55.619Z,4.40
2019-02-11T08:47:29.261Z,4.30
2019-02-11T08:50:02.939Z,4.57
2019-02-11T08:52:36.510Z,4.43
2019-02-11T08:55:10.163Z,4.27
2019-02-11T08:57:43.515Z,4.60
2019-02-11T09:00:17.082Z,4.70
2019-02-11T09:02:50.651Z,4.33
2019-02-11T09:05:24.144Z,4.53
2019-02-11T09:07:57.591Z,4.80
2019-02-11T09:10:31.048Z,4.80
2019-02-11T09:13:04.631Z,4.83
2019-02-11T09:15:38.170Z,4.87
2019-02-11T09:18:11.669Z,5.43
2019-02-11T09:20:45.143Z,4.57
2019-02-11T09:23:18.711Z,5.27
2019-02-11T09:25:52.245Z,4.90
2019-02-11T09:28:25.690Z,5.37
2019-02-11T09:30:59.289Z,4.27
2019-02-11T09:33:32.844Z,4.90
2019-02-11T09:36:06.390Z,5.07
2019-02-11T09:38:40.019Z,4.73
2019-02-11T09:41:14.757Z,4.67
2019-02-11T09:43:48.183Z,5.10
2019-02-11T09:46:21.838Z,5.47
2019-02-11T09:48:55.367Z,5.27
2019-02-11T09:51:29.029Z,5.47
2019-02-11T09:54:02.818Z,5.33
2019-02-11T09:56:36.287Z,5.30
2019-02-11T09:59:09.805Z,5.30
2019-02-11T10:01:43.358Z,5.47
2019-02-11T10:04:16.813Z,5.10
2019-02-11T10:06:50.383Z,4.97
2019-02-11T10:09:24.086Z,4.77
2019-02-11T10:11:57.692Z,4.93
2019-02-11T10:14:31.189Z,4.93
2019-02-11T10:17:04.888Z,6.20
2019-02-11T10:19:38.412Z,5.97
2019-02-11T10:22:12.023Z,5.00
2019-02-11T10:24:45.741Z,6.03
2019-02-11T10:27:19.383Z,4.77
2019-02-11T10:29:52.930Z,5.07
2019-02-11T10:32:26.552Z,4.70
2019-02-11T10:35:00.240Z,5.77
2019-02-11T10:37:33.802Z,5.63
2019-02-11T10:40:10.084Z,5.13
2019-02-11T10:42:43.651Z,5.10
2019-02-11T10:45:17.250Z,5.33
2019-02-11T10:47:50.708Z,4.60
2019-02-11T10:50:24.266Z,4.83
2019-02-11T10:52:57.754Z,4.80
2019-02-11T10:55:31.276Z,4.63
2019-02-11T10:58:05.342Z,4.47
2019-02-11T11:00:39.196Z,4.83
2019-02-11T11:03:12.775Z,4.73
2019-02-11T11:05:46.317Z,4.87
2019-02-11T11:08:19.860Z,4.60
2019-02-11T11:10:53.499Z,4.53
2019-02-11T11:13:26.982Z,4.17
2019-02-11T11:16:01.027Z,4.90
2019-02-11T11:18:34.525Z,4.93
2019-02-11T11:21:09.207Z,4.60
2019-02-11T11:23:42.649Z,4.73
2019-02-11T11:26:16.176Z,4.30
2019-02-11T11:28:49.672Z,5.20
2019-02-11T11:31:23.232Z,4.10
2019-02-11T11:33:56.807Z,4.07
2019-02-11T11:36:30.581Z,4.57
2019-02-11T11:39:06.504Z,4.10
2019-02-11T11:41:40.163Z,4.23
2019-02-11T11:44:13.588Z,4.27
2019-02-11T11:46:47.430Z,4.03
2019-02-11T11:49:21.139Z,3.67
2019-02-11T11:51:54.706Z,4.10
2019-02-11T11:54:28.165Z,3.90
2019-02-11T11:57:01.790Z,5.07
2019-02-11T11:59:35.375Z,4.13
2019-02-11T12:02:08.913Z,4.03
2019-02-11T12:04:42.429Z,4.80
2019-02-11T12:07:16.068Z,4.33
2019-02-11T12:09:49.658Z,4.37
2019-02-11T12:12:23.125Z,4.80
2019-02-11T12:14:56.595Z,4.23
2019-02-11T12:17:30.252Z,4.87
2019-02-11T12:20:03.935Z,4.50
2019-02-11T12:22:37.532Z,4.17
2019-02-11T12:25:13.616Z,4.40
2019-02-11T12:27:47.117Z,4.80
2019-02-11T12:30:25.550Z,4.23
2019-02-11T12:32:59.177Z,4.90
2019-02-11T12:35:32.657Z,4.50
2019-02-11T12:38:06.104Z,4.30
2019-02-11T12:40:39.544Z,4.60
2019-02-11T12:43:13.008Z,4.87
2019-02-11T12:45:46.657Z,4.17
2019-02-11T12:48:20.179Z,3.90
2019-02-11T12:50:53.752Z,3.60
2019-02-11T12:53:27.197Z,2.83
2019-02-11T12:56:02.401Z,3.80
2019-02-11T12:58:35.994Z,3.50
2019-02-11T13:01:09.481Z,4.00
2019-02-11T13:03:43.173Z,3.37
2019-02-11T13:06:16.637Z,3.73
2019-02-11T13:08:50.149Z,3.73
2019-02-11T13:11:23.690Z,4.20
2019-02-11T13:13:57.310Z,4.00
2019-02-11T13:16:30.847Z,4.23
2019-02-11T13:19:04.386Z,4.07
2019-02-11T13:21:37.989Z,4.10
2019-02-11T13:24:11.450Z,3.50
2019-02-11T13:26:44.994Z,3.93
2019-02-11T13:29:18.591Z,3.67
2019-02-11T13:31:52.086Z,4.10
2019-02-11T13:34:25.834Z,3.90
2019-02-11T13:36:59.372Z,4.20
2019-02-11T13:39:32.830Z,4.23
2019-02-11T13:42:06.420Z,4.50
2019-02-11T13:44:39.786Z,3.90
2019-02-11T13:47:13.243Z,4.30
2019-02-11T13:49:47.060Z,3.93
2019-02-11T13:52:20.776Z,4.23
2019-02-11T13:54:54.302Z,3.90
2019-02-11T13:57:27.819Z,3.77
2019-02-11T14:00:01.273Z,3.67
2019-02-11T14:02:35.435Z,4.33
2019-02-11T14:05:09.057Z,3.70
2019-02-11T14:07:42.729Z,3.87
2019-02-11T14:10:16.333Z,3.53
2019-02-11T14:12:50.268Z,3.40
2019-02-11T14:15:23.773Z,3.83
2019-02-11T14:18:13.091Z,3.27
2019-02-11T14:20:44.308Z,3.57
2019-02-11T14:23:18.002Z,3.87
2019-02-11T14:25:51.610Z,3.70
2019-02-11T14:28:25.186Z,4.07
2019-02-11T14:30:58.605Z,3.17
2019-02-11T14:33:32.199Z,3.00
2019-02-11T14:36:05.871Z,4.43
2019-02-11T14:38:39.404Z,3.43
2019-02-11T14:41:12.937Z,4.70
2019-02-11T14:43:46.425Z,3.73
2019-02-11T14:46:19.965Z,3.93
2019-02-11T14:48:53.498Z,3.50
2019-02-11T14:51:27.053Z,4.20
2019-02-11T14:54:00.557Z,4.07
2019-02-11T14:56:34.031Z,3.70
2019-02-11T14:59:07.677Z,4.03
2019-02-11T15:01:41.151Z,3.27
2019-02-11T15:04:14.585Z,3.93
2019-02-11T15:06:48.068Z,3.57
2019-02-11T15:09:21.584Z,4.17
2019-02-11T15:11:57.310Z,3.80
2019-02-11T15:14:30.741Z,4.33
2019-02-11T15:17:04.275Z,3.53
2019-02-11T15:19:37.735Z,3.53
2019-02-11T15:22:11.289Z,3.70
2019-02-11T15:24:44.778Z,4.03
2019-02-11T15:27:18.321Z,3.43
2019-02-11T15:29:51.942Z,3.90
2019-02-11T15:32:25.432Z,3.90
2019-02-11T15:34:59.043Z,3.37
2019-02-11T15:37:32.521Z,4.13
2019-02-11T15:40:09.043Z,4.00
2019-02-11T15:42:42.592Z,3.80
2019-02-11T15:45:16.169Z,4.33
2019-02-11T15:47:49.624Z,4.73
2019-02-11T15:50:23.144Z,4.70
2019-02-11T15:52:56.973Z,4.60
2019-02-11T15:55:30.595Z,4.60
2019-02-11T15:58:04.229Z,4.93
2019-02-11T16:00:37.795Z,4.50
2019-02-11T16:03:11.248Z,4.23
2019-02-11T16:05:49.627Z,4.57
2019-02-11T16:08:20.114Z,5.27
2019-02-11T16:11:01.227Z,4.90
2019-02-11T16:13:28.976Z,4.83
2019-02-11T16:16:02.560Z,4.57
2019-02-11T16:18:36.421Z,4.93
2019-02-11T16:21:10.105Z,5.50
2019-02-11T16:23:43.748Z,5.60
2019-02-11T16:26:17.486Z,5.27
2019-02-11T16:28:51.239Z,5.47
2019-02-11T16:31:24.842Z,5.13
2019-02-11T16:33:58.212Z,5.30
2019-02-11T16:36:31.810Z,5.60
2019-02-11T16:39:06.015Z,5.27
2019-02-11T16:41:39.751Z,4.73
2019-02-11T16:44:13.232Z,5.17
2019-02-11T16:46:46.630Z,5.73
2019-02-11T16:49:20.073Z,4.97
2019-02-11T16:51:53.577Z,5.33
2019-02-11T16:54:26.959Z,5.07
2019-02-11T16:57:00.431Z,4.70
2019-02-11T16:59:33.890Z,5.43
2019-02-11T17:02:07.369Z,5.00
2019-02-11T17:04:40.857Z,4.53
2019-02-11T17:07:14.439Z,5.10
2019-02-11T17:09:47.941Z,5.00
2019-02-11T17:12:21.544Z,4.80
2019-02-11T17:14:54.967Z,4.43
2019-02-11T17:17:28.458Z,4.73
2019-02-11T17:20:01.896Z,5.17
2019-02-11T17:22:35.450Z,4.33
2019-02-11T17:25:10.479Z,5.00
2019-02-11T17:27:44.021Z,4.50
2019-02-11T17:30:23.400Z,4.33
2019-02-11T17:32:56.864Z,4.60
2019-02-11T17:35:30.793Z,4.13
2019-02-11T17:38:05.020Z,5.33
2019-02-11T17:40:38.517Z,4.43
2019-02-11T17:43:12.144Z,5.03
2019-02-11T17:45:45.859Z,4.47
2019-02-11T17:48:20.394Z,4.50
2019-02-11T17:50:54.215Z,4.43
2019-02-11T17:53:27.695Z,4.07
2019-02-11T17:56:01.265Z,4.00
2019-02-11T17:58:34.886Z,4.40
2019-02-11T18:01:08.583Z,4.40
2019-02-11T18:03:42.227Z,3.83
2019-02-11T18:06:15.888Z,4.07
2019-02-11T18:08:49.358Z,3.80
2019-02-11T18:11:23.091Z,4.03
2019-02-11T18:13:56.544Z,3.73
2019-02-11T18:16:30.156Z,3.23
2019-02-11T18:19:04.219Z,4.50
2019-02-11T18:21:37.686Z,4.07
2019-02-11T18:24:11.221Z,3.37
2019-02-11T18:26:44.820Z,3.70
2019-02-11T18:29:18.468Z,4.17
2019-02-11T18:31:52.053Z,3.43
2019-02-11T18:34:25.600Z,3.30
2019-02-11T18:36:59.088Z,3.50
2019-02-11T18:39:32.689Z,4.00
2019-02-11T18:42:06.195Z,3.53
2019-02-11T18:44:39.717Z,4.13
2019-02-11T18:47:13.321Z,4.47
2019-02-11T18:49:46.928Z,3.60
2019-02-11T18:52:20.516Z,3.60
2019-02-11T18:54:54.023Z,5.00
2019-02-11T18:57:27.566Z,4.37
2019-02-11T19:00:10.842Z,5.07
2019-02-11T19:02:44.373Z,4.10
2019-02-11T19:05:18.254Z,4.53
2019-02-11T19:07:52.046Z,4.37
2019-02-11T19:10:25.485Z,3.77
2019-02-11T19:12:59.117Z,3.90
2019-02-11T19:15:32.850Z,4.27
2019-02-11T19:18:06.377Z,4.50
2019-02-11T19:20:39.776Z,4.43
2019-02-11T19:23:13.454Z,4.30
2019-02-11T19:25:47.091Z,4.13
2019-02-11T19:28:20.746Z,4.60
2019-02-11T19:30:54.421Z,4.17
2019-02-11T19:33:28.030Z,3.70
2019-02-11T19:36:01.652Z,3.60
2019-02-11T19:38:35.186Z,4.17
2019-02-11T19:41:08.796Z,3.90
2019-02-11T19:43:42.342Z,4.20
2019-02-11T19:46:15.873Z,3.87
2019-02-11T19:48:49.431Z,3.60
2019-02-11T19:51:22.950Z,4.40
2019-02-11T19:53:56.533Z,3.90
2019-02-11T19:56:30.540Z,4.53
2019-02-11T19:59:04.172Z,3.90
2019-02-11T20:01:37.607Z,3.87
2019-02-11T20:04:11.124Z,3.67
2019-02-11T20:06:44.637Z,3.73
2019-02-11T20:09:18.092Z,3.80
2019-02-11T20:11:51.544Z,3.37
2019-02-11T20:14:25.135Z,4.00
2019-02-11T20:16:58.790Z,3.80
2019-02-11T20:19:32.185Z,4.00
2019-02-11T20:22:05.770Z,3.40
2019-02-11T20:24:39.269Z,3.33
2019-02-11T20:27:12.829Z,3.03
2019-02-11T20:29:46.315Z,2.90
2019-02-11T20:32:19.872Z,3.73
2019-02-11T20:34:53.354Z,3.00
2019-02-11T20:37:26.926Z,2.63
2019-02-11T20:40:03.429Z,3.17
2019-02-11T20:42:35.639Z,3.47
2019-02-11T20:45:12.207Z,3.43
2019-02-11T20:47:45.866Z,3.27
2019-02-11T20:50:19.382Z,2.97
2019-02-11T20:52:52.844Z,2.90
2019-02-11T20:55:26.300Z,3.67
2019-02-11T20:58:00.835Z,4.30
2019-02-11T21:00:34.278Z,3.10
2019-02-11T21:03:08.644Z,3.60
2019-02-11T21:05:42.229Z,3.37
2019-02-11T21:08:15.881Z,3.53
2019-02-11T21:10:49.372Z,3.00
2019-02-11T21:13:23.016Z,3.20
2019-02-11T21:15:56.762Z,3.60
2019-02-11T21:18:30.301Z,3.20
2019-02-11T21:21:03.802Z,3.40
2019-02-11T21:23:38.171Z,3.73
2019-02-11T21:26:11.631Z,3.23
2019-02-11T21:28:45.161Z,3.33
2019-02-11T21:31:18.785Z,3.13
2019-02-11T21:33:52.310Z,2.90
2019-02-11T21:36:25.754Z,3.37
2019-02-11T21:38:59.246Z,3.80
2019-02-11T21:41:32.685Z,3.57
2019-02-11T21:44:06.323Z,3.33
2019-02-11T21:46:39.990Z,3.30
2019-02-11T21:49:13.574Z,2.60
2019-02-11T21:51:47.135Z,2.80
2019-02-11T21:54:20.723Z,3.23
2019-02-11T21:56:54.147Z,3.00
2019-02-11T21:59:27.748Z,3.30
2019-02-11T22:02:01.235Z,3.23
2019-02-11T22:04:34.762Z,2.57
2019-02-11T22:07:08.277Z,2.97
2019-02-11T22:09:41.783Z,3.27
2019-02-11T22:12:15.314Z,2.87
2019-02-11T22:14:48.950Z,2.87
2019-02-11T22:17:22.460Z,3.03
2019-02-11T22:19:55.927Z,2.20
2019-02-11T22:22:29.459Z,2.60
2019-02-11T22:25:03.308Z,2.50
2019-02-11T22:27:36.815Z,2.60
2019-02-11T22:30:16.590Z,2.67
2019-02-11T22:32:50.101Z,2.87
2019-02-11T22:35:23.591Z,2.60
2019-02-11T22:37:57.130Z,2.60
2019-02-11T22:40:30.528Z,2.77
2019-02-11T22:43:04.056Z,2.80
2019-02-11T22:45:37.675Z,2.13
2019-02-11T22:48:11.035Z,2.43
2019-02-11T22:50:44.560Z,2.70
2019-02-11T22:53:18.234Z,2.67
2019-02-11T22:55:51.711Z,2.27
2019-02-11T22:58:25.164Z,2.33
2019-02-11T23:01:00.280Z,2.50
2019-02-11T23:03:34.635Z,2.47
2019-02-11T23:06:08.211Z,2.90
2019-02-11T23:08:41.677Z,2.23
2019-02-11T23:11:15.097Z,2.47
2019-02-11T23:13:48.734Z,2.13
2019-02-11T23:16:22.155Z,2.83
2019-02-11T23:18:55.681Z,3.07
2019-02-11T23:21:29.134Z,2.60
2019-02-11T23:24:02.703Z,2.50
2019-02-11T23:26:36.203Z,2.70
2019-02-11T23:29:09.837Z,2.70
2019-02-11T23:31:43.372Z,2.47
2019-02-11T23:34:16.862Z,3.47
2019-02-11T23:36:50.335Z,2.63
2019-02-11T23:39:23.965Z,2.40
2019-02-11T23:41:57.537Z,2.70
2019-02-11T23:44:31.169Z,3.03
2019-02-11T23:47:04.626Z,2.67
2019-02-11T23:49:38.116Z,2.50
2019-02-11T23:52:11.714Z,2.73
2019-02-11T23:54:45.208Z,2.53
2019-02-11T23:57:18.832Z,3.20
2019-02-11T23:59:52.526Z,2.73
